createdAt,value
2023-02-13T00:00:11.144Z,11.50
2023-02-13T00:05:12.416Z,12.25
2023-02-13T00:10:13.905Z,12.33
2023-02-13T00:15:15.207Z,14.07
2023-02-13T00:20:16.522Z,12.00
2023-02-13T00:25:17.838Z,11.32
2023-02-13T00:30:19.332Z,11.38
2023-02-13T00:35:20.614Z,10.63
2023-02-13T00:40:22.371Z,10.40
2023-02-13T00:45:23.699Z,9.67
2023-02-13T00:50:25.049Z,10.45
2023-02-13T00:55:26.336Z,13.15
2023-02-13T01:00:27.695Z,11.07
2023-02-13T01:05:29.079Z,11.85
2023-02-13T01:10:30.320Z,10.47
2023-02-13T01:15:32.569Z,9.38
2023-02-13T01:20:34.004Z,9.68
2023-02-13T01:25:35.333Z,10.20
2023-02-13T01:30:36.793Z,9.50
2023-02-13T01:35:41.128Z,9.10
2023-02-13T01:40:46.520Z,9.15
2023-02-13T01:45:50.946Z,9.63
2023-02-13T01:50:55.343Z,9.57
2023-02-13T01:55:59.081Z,9.50
2023-02-13T02:01:00.985Z,8.83
2023-02-13T02:06:02.485Z,9.65
2023-02-13T02:11:07.100Z,9.35
2023-02-13T02:16:08.669Z,8.90
2023-02-13T02:21:10.047Z,8.55
2023-02-13T02:26:30.264Z,8.57
2023-02-13T02:31:53.328Z,8.07
2023-02-13T02:37:13.621Z,8.75
2023-02-13T02:42:14.934Z,9.07
2023-02-13T02:47:38.120Z,10.73
2023-02-13T02:53:05.000Z,10.60
2023-02-13T02:58:57.304Z,10.07
2023-02-13T03:04:17.479Z,12.77
2023-02-13T03:09:47.749Z,9.63
2023-02-13T03:14:49.259Z,9.60
2023-02-13T03:20:12.816Z,8.10
2023-02-13T03:25:30.211Z,8.85
2023-02-13T03:30:40.098Z,8.48
2023-02-13T03:36:05.172Z,8.13
2023-02-13T03:41:18.572Z,8.18
2023-02-13T03:46:20.676Z,8.60
2023-02-13T03:51:28.626Z,8.95
2023-02-13T03:56:49.406Z,8.30
2023-02-13T04:02:12.464Z,8.60
2023-02-13T04:07:31.841Z,8.35
2023-02-13T04:12:37.745Z,8.67
2023-02-13T04:17:41.504Z,8.50
2023-02-13T04:22:44.197Z,9.15
2023-02-13T04:27:45.466Z,8.70
2023-02-13T04:32:46.801Z,9.10
2023-02-13T04:37:48.130Z,9.33
2023-02-13T04:42:49.573Z,8.63
2023-02-13T04:47:54.344Z,9.55
2023-02-13T04:52:56.770Z,9.17
2023-02-13T04:57:58.104Z,8.77
2023-02-13T05:03:06.374Z,11.23
2023-02-13T05:08:08.339Z,11.13
2023-02-13T05:13:09.645Z,11.30
2023-02-13T05:18:10.910Z,11.20
2023-02-13T05:23:22.628Z,12.02
2023-02-13T05:28:42.895Z,11.63
2023-02-13T05:33:44.262Z,10.77
2023-02-13T05:38:45.512Z,11.77
2023-02-13T05:43:46.760Z,10.83
2023-02-13T05:48:48.001Z,12.98
2023-02-13T05:53:49.286Z,12.47
2023-02-13T05:58:55.934Z,12.13
2023-02-13T06:03:59.032Z,15.48
2023-02-13T06:09:00.949Z,14.20
2023-02-13T06:14:02.223Z,16.08
2023-02-13T06:19:03.524Z,14.67
2023-02-13T06:24:05.480Z,13.95
2023-02-13T06:29:07.012Z,11.15
2023-02-13T06:34:08.261Z,10.80
2023-02-13T06:39:10.857Z,15.70
2023-02-13T06:44:12.114Z,18.80
2023-02-13T06:49:13.486Z,13.93
2023-02-13T06:54:14.736Z,14.85
2023-02-13T06:59:15.992Z,16.13
2023-02-13T07:04:17.306Z,13.65
2023-02-13T07:09:18.602Z,12.23
2023-02-13T07:14:19.900Z,13.07
2023-02-13T07:19:21.197Z,12.40
2023-02-13T07:24:22.485Z,13.90
2023-02-13T07:29:23.799Z,12.32
2023-02-13T07:34:25.050Z,24.63
2023-02-13T07:39:26.382Z,18.95
2023-02-13T07:44:27.658Z,17.02
2023-02-13T07:49:28.982Z,16.37
2023-02-13T07:54:30.542Z,16.50
2023-02-13T07:59:31.941Z,16.20
2023-02-13T08:04:33.249Z,16.58
2023-02-13T08:09:53.120Z,17.73
2023-02-13T08:14:54.393Z,15.70
2023-02-13T08:19:55.670Z,14.90
2023-02-13T08:24:56.920Z,13.73
2023-02-13T08:29:58.447Z,13.02
2023-02-13T08:34:59.722Z,12.90
2023-02-13T08:40:00.964Z,12.13
2023-02-13T08:45:02.229Z,11.20
2023-02-13T08:50:03.864Z,10.07
2023-02-13T08:55:05.349Z,9.60
2023-02-13T09:00:06.985Z,10.55
2023-02-13T09:05:08.379Z,10.00
2023-02-13T09:10:09.922Z,9.90
2023-02-13T09:15:11.197Z,9.27
2023-02-13T09:20:14.011Z,9.35
2023-02-13T09:25:15.457Z,9.93
2023-02-13T09:30:23.227Z,8.67
2023-02-13T09:35:24.655Z,9.57
2023-02-13T09:40:32.045Z,8.47
2023-02-13T09:45:34.362Z,9.82
2023-02-13T09:50:35.726Z,9.77
2023-02-13T09:55:56.183Z,10.63
2023-02-13T10:00:59.945Z,11.00
2023-02-13T10:06:07.214Z,9.67
2023-02-13T10:11:08.448Z,10.32
2023-02-13T10:16:13.422Z,10.35
2023-02-13T10:21:15.920Z,9.67
2023-02-13T10:26:21.279Z,9.45
2023-02-13T10:31:23.312Z,11.67
2023-02-13T10:36:40.565Z,20.85
2023-02-13T10:41:51.051Z,10.70
2023-02-13T10:47:11.174Z,18.10
2023-02-13T10:52:20.969Z,10.18
2023-02-13T10:57:30.016Z,10.37
2023-02-13T11:02:36.851Z,9.05
2023-02-13T11:07:39.623Z,10.13
2023-02-13T11:12:41.018Z,10.20
2023-02-13T11:17:44.392Z,12.98
2023-02-13T11:22:45.711Z,10.93
2023-02-13T11:27:48.661Z,9.65
2023-02-13T11:32:57.961Z,11.25
2023-02-13T11:38:20.431Z,11.13
2023-02-13T11:43:48.084Z,12.10
2023-02-13T11:48:56.607Z,10.70
2023-02-13T11:54:01.080Z,10.90
2023-02-13T11:59:03.210Z,10.65
2023-02-13T12:04:16.251Z,9.40
2023-02-13T12:09:17.545Z,10.32
2023-02-13T12:14:23.557Z,10.70
2023-02-13T12:19:28.886Z,11.00
2023-02-13T12:24:45.338Z,11.45
2023-02-13T12:30:01.943Z,9.97
2023-02-13T12:35:03.293Z,10.63
2023-02-13T12:40:30.997Z,11.03
2023-02-13T12:45:52.560Z,10.13
2023-02-13T12:51:02.670Z,9.00
2023-02-13T12:56:19.339Z,11.47
2023-02-13T13:01:23.711Z,9.32
2023-02-13T13:06:31.008Z,9.90
2023-02-13T13:11:33.120Z,10.02
2023-02-13T13:16:45.129Z,10.75
2023-02-13T13:21:56.649Z,10.47
2023-02-13T13:26:58.873Z,9.60
2023-02-13T13:32:02.213Z,9.90
2023-02-13T13:37:06.416Z,9.50
2023-02-13T13:42:19.240Z,8.77
2023-02-13T13:47:20.507Z,9.67
2023-02-13T13:52:23.772Z,9.23
2023-02-13T13:57:26.341Z,9.10
2023-02-13T14:02:39.372Z,9.75
2023-02-13T14:07:41.511Z,9.60
2023-02-13T14:12:47.358Z,9.30
2023-02-13T14:17:50.931Z,9.75
2023-02-13T14:22:52.591Z,10.33
2023-02-13T14:27:59.494Z,9.43
2023-02-13T14:33:02.757Z,10.18
2023-02-13T14:38:05.464Z,9.70
2023-02-13T14:43:21.799Z,10.30
2023-02-13T14:48:28.124Z,9.27
2023-02-13T14:53:46.460Z,9.13
2023-02-13T14:58:50.837Z,8.68
2023-02-13T15:03:57.211Z,8.73
2023-02-13T15:08:59.835Z,7.72
2023-02-13T15:14:16.772Z,7.10
2023-02-13T15:19:19.556Z,6.90
2023-02-13T15:24:22.961Z,7.97
2023-02-13T15:29:31.092Z,6.33
2023-02-13T15:34:36.752Z,10.25
2023-02-13T15:39:38.138Z,6.97
2023-02-13T15:44:40.354Z,6.18
2023-02-13T15:49:46.114Z,6.57
2023-02-13T15:54:52.358Z,9.20
2023-02-13T15:59:55.538Z,11.15
2023-02-13T16:04:57.448Z,11.27
2023-02-13T16:10:14.834Z,13.38
2023-02-13T16:15:18.134Z,11.35
2023-02-13T16:20:21.578Z,13.00
2023-02-13T16:25:22.950Z,12.68
2023-02-13T16:30:36.711Z,12.80
2023-02-13T16:35:38.947Z,12.93
2023-02-13T16:40:41.594Z,13.88
2023-02-13T16:45:42.896Z,13.67
2023-02-13T16:50:44.354Z,14.10
2023-02-13T16:55:45.749Z,14.60
2023-02-13T17:00:49.946Z,13.98
2023-02-13T17:05:51.222Z,14.65
2023-02-13T17:11:03.368Z,15.00
2023-02-13T17:16:04.777Z,13.98
2023-02-13T17:21:06.166Z,14.23
2023-02-13T17:26:07.487Z,13.77
2023-02-13T17:31:10.808Z,15.43
2023-02-13T17:36:12.783Z,18.57
2023-02-13T17:41:14.682Z,16.88
2023-02-13T17:46:16.903Z,15.33
2023-02-13T17:51:18.375Z,15.00
2023-02-13T17:56:19.704Z,13.45
2023-02-13T18:01:21.009Z,12.73
2023-02-13T18:06:22.314Z,12.52
2023-02-13T18:11:23.652Z,18.27
2023-02-13T18:16:25.365Z,25.85
2023-02-13T18:21:26.670Z,24.35
2023-02-13T18:26:28.186Z,21.03
2023-02-13T18:31:29.954Z,18.15
2023-02-13T18:36:31.305Z,15.97
2023-02-13T18:41:32.586Z,18.73
2023-02-13T18:46:33.862Z,13.85
2023-02-13T18:51:35.208Z,13.07
2023-02-13T18:56:36.787Z,12.15
2023-02-13T19:01:38.110Z,13.30
2023-02-13T19:06:40.466Z,18.00
2023-02-13T19:11:42.766Z,18.83
2023-02-13T19:16:44.198Z,14.90
2023-02-13T19:21:45.468Z,15.23
2023-02-13T19:26:47.274Z,15.70
2023-02-13T19:31:48.808Z,14.32
2023-02-13T19:36:50.315Z,20.40
2023-02-13T19:41:51.603Z,14.50
2023-02-13T19:46:52.967Z,14.82
2023-02-13T19:51:54.338Z,15.77
2023-02-13T19:57:00.286Z,20.15
2023-02-13T20:02:01.648Z,16.35
2023-02-13T20:07:03.065Z,15.80
2023-02-13T20:12:04.606Z,18.27
2023-02-13T20:17:05.956Z,17.58
2023-02-13T20:22:07.342Z,18.20
2023-02-13T20:27:10.516Z,17.58
2023-02-13T20:32:12.791Z,16.67
2023-02-13T20:37:19.000Z,19.08
2023-02-13T20:42:20.252Z,16.67
2023-02-13T20:47:21.715Z,13.02
2023-02-13T20:52:23.173Z,13.52
2023-02-13T20:57:24.508Z,16.67
2023-02-13T21:02:25.833Z,18.55
2023-02-13T21:07:27.144Z,20.58
2023-02-13T21:12:28.421Z,20.23
2023-02-13T21:17:29.772Z,18.50
2023-02-13T21:22:31.147Z,18.27
2023-02-13T21:27:33.614Z,18.20
2023-02-13T21:32:36.178Z,17.10
2023-02-13T21:37:37.629Z,14.98
2023-02-13T21:42:38.965Z,13.63
2023-02-13T21:47:40.254Z,11.53
2023-02-13T21:52:41.563Z,11.48
2023-02-13T21:57:42.953Z,10.32
2023-02-13T22:02:44.294Z,10.70
2023-02-13T22:08:04.157Z,13.05
2023-02-13T22:13:05.812Z,11.33
2023-02-13T22:18:07.074Z,9.98
2023-02-13T22:23:08.356Z,10.18
2023-02-13T22:28:09.639Z,12.15
2023-02-13T22:33:12.191Z,14.75
2023-02-13T22:38:13.542Z,12.60
2023-02-13T22:43:14.824Z,11.60
2023-02-13T22:48:16.088Z,10.60
2023-02-13T22:53:17.410Z,11.82
2023-02-13T22:58:18.740Z,11.25
2023-02-13T23:03:21.823Z,12.03
2023-02-13T23:08:23.119Z,11.23
2023-02-13T23:13:24.592Z,11.25
2023-02-13T23:18:25.980Z,10.88
2023-02-13T23:23:27.262Z,9.07
2023-02-13T23:28:28.554Z,8.57
2023-02-13T23:33:30.091Z,11.40
2023-02-13T23:38:31.398Z,11.35
2023-02-13T23:43:32.697Z,10.35
2023-02-13T23:48:34.371Z,10.30
2023-02-13T23:53:36.139Z,10.97
2023-02-13T23:58:37.500Z,10.93
